Terminal Aerodrome Forecast
Issued by NWS Charleston, WV

Current Version | Previous Version | Graphics & Text | Print | Product List | Glossary On
Versions: 1 2 3 4 5 6 7 8 9 10 11 12 13 14 15 16 17 18 19 20 21 22 23 24 25 26 27 28 29
000
FTUS41 KRLX 210800 AAA
TAFCRW
TAF AMD
KCRW 210858Z 2109/2206 00000KT P6SM BKN070
     FM211100 24005KT P6SM BKN035
     FM211400 27004KT P6SM BKN025
     FM211700 29006KT P6SM OVC035
     FM220300 31004KT P6SM OVC025=

USA.gov is the U.S. government's official web portal to all federal, state and local government web resources and services.